createdAt,value
2023-01-22T00:01:12.403Z,12.07
2023-01-22T00:03:40.896Z,12.30
2023-01-22T00:06:08.170Z,12.20
2023-01-22T00:08:34.943Z,13.02
2023-01-22T00:11:01.974Z,12.05
2023-01-22T00:13:28.692Z,12.32
2023-01-22T00:15:58.574Z,11.75
2023-01-22T00:18:25.931Z,13.15
2023-01-22T00:20:54.505Z,12.38
2023-01-22T00:23:21.615Z,11.93
2023-01-22T00:25:48.321Z,12.77
2023-01-22T00:28:16.828Z,12.10
2023-01-22T00:30:43.894Z,10.02
2023-01-22T00:33:10.577Z,10.73
2023-01-22T00:35:37.323Z,10.13
2023-01-22T00:38:04.179Z,9.88
2023-01-22T00:40:30.929Z,10.38
2023-01-22T00:42:57.576Z,10.73
2023-01-22T00:45:24.217Z,11.68
2023-01-22T00:47:51.977Z,12.77
2023-01-22T00:50:19.063Z,11.23
2023-01-22T00:52:45.890Z,10.77
2023-01-22T00:55:12.510Z,11.55
2023-01-22T00:57:39.191Z,12.07
2023-01-22T01:00:06.606Z,11.40
2023-01-22T01:02:33.389Z,12.70
2023-01-22T01:05:01.920Z,10.63
2023-01-22T01:07:28.656Z,11.30
2023-01-22T01:09:55.546Z,10.77
2023-01-22T01:12:22.200Z,16.45
2023-01-22T01:14:48.920Z,11.15
2023-01-22T01:17:15.561Z,10.52
2023-01-22T01:19:42.236Z,15.90
2023-01-22T01:22:08.919Z,26.45
2023-01-22T01:24:36.524Z,22.73
2023-01-22T01:27:03.400Z,18.73
2023-01-22T01:29:30.228Z,26.08
2023-01-22T01:31:57.837Z,22.77
2023-01-22T01:34:24.603Z,22.33
2023-01-22T01:36:51.318Z,23.58
2023-01-22T01:39:18.549Z,15.10
2023-01-22T01:41:45.287Z,16.75
2023-01-22T01:44:18.176Z,31.83
2023-01-22T01:46:49.814Z,27.13
2023-01-22T01:49:36.529Z,18.90
2023-01-22T01:52:08.709Z,27.52
2023-01-22T01:54:36.475Z,22.88
2023-01-22T01:57:19.509Z,32.40
2023-01-22T01:59:47.569Z,34.72
2023-01-22T02:02:15.411Z,43.38
2023-01-22T02:04:42.096Z,34.28
2023-01-22T02:07:08.912Z,29.00
2023-01-22T02:09:35.658Z,32.95
2023-01-22T02:12:03.199Z,26.40
2023-01-22T02:14:37.324Z,28.92
2023-01-22T02:17:20.692Z,38.05
2023-01-22T02:19:47.873Z,36.40
2023-01-22T02:22:21.620Z,38.05
2023-01-22T02:24:49.255Z,37.17
2023-01-22T02:27:15.897Z,19.10
2023-01-22T02:29:42.564Z,29.00
2023-01-22T02:32:09.374Z,42.72
2023-01-22T02:34:36.264Z,30.77
2023-01-22T02:37:03.185Z,30.38
2023-01-22T02:39:30.595Z,38.05
2023-01-22T02:41:58.154Z,55.33
2023-01-22T02:44:24.877Z,42.92
2023-01-22T02:46:51.567Z,27.73
2023-01-22T02:49:18.236Z,38.33
2023-01-22T02:51:44.970Z,23.65
2023-01-22T02:54:11.642Z,23.38
2023-01-22T02:56:38.371Z,39.60
2023-01-22T02:59:05.412Z,33.83
2023-01-22T03:01:32.376Z,33.75
2023-01-22T03:04:01.852Z,34.78
2023-01-22T03:06:30.183Z,38.85
2023-01-22T03:09:00.592Z,39.78
2023-01-22T03:11:29.300Z,46.97
2023-01-22T03:14:15.663Z,31.90
2023-01-22T03:17:01.646Z,40.42
2023-01-22T03:19:47.387Z,46.67
2023-01-22T03:22:15.607Z,45.55
2023-01-22T03:24:43.276Z,44.10
2023-01-22T03:27:10.382Z,35.72
2023-01-22T03:29:40.039Z,33.38
2023-01-22T03:32:07.324Z,49.38
2023-01-22T03:34:34.149Z,27.42
2023-01-22T03:37:00.784Z,52.30
2023-01-22T03:39:27.944Z,37.22
2023-01-22T03:41:54.672Z,32.90
2023-01-22T03:44:21.429Z,44.10
2023-01-22T03:46:48.270Z,35.90
2023-01-22T03:49:15.071Z,27.85
2023-01-22T03:51:43.023Z,39.30
2023-01-22T03:54:14.213Z,29.65
2023-01-22T03:56:42.018Z,31.20
2023-01-22T03:59:10.185Z,31.48
2023-01-22T04:01:37.221Z,43.88
2023-01-22T04:04:04.191Z,34.22
2023-01-22T04:06:30.815Z,36.03
2023-01-22T04:08:57.447Z,33.40
2023-01-22T04:11:24.413Z,39.03
2023-01-22T04:13:51.343Z,29.40
2023-01-22T04:16:18.286Z,45.60
2023-01-22T04:18:45.203Z,33.70
2023-01-22T04:21:11.942Z,36.05
2023-01-22T04:23:38.753Z,27.17
2023-01-22T04:26:05.623Z,20.58
2023-01-22T04:28:32.324Z,27.73
2023-01-22T04:30:59.688Z,19.48
2023-01-22T04:33:26.463Z,18.15
2023-01-22T04:35:54.646Z,20.35
2023-01-22T04:38:21.699Z,15.05
2023-01-22T04:40:48.393Z,15.20
2023-01-22T04:43:15.037Z,13.88
2023-01-22T04:45:41.775Z,13.45
2023-01-22T04:48:09.245Z,13.95
2023-01-22T04:50:35.976Z,14.00
2023-01-22T04:53:03.463Z,12.63
2023-01-22T04:55:30.267Z,12.82
2023-01-22T04:57:58.525Z,13.43
2023-01-22T05:00:26.435Z,11.88
2023-01-22T05:03:01.161Z,12.20
2023-01-22T05:05:29.478Z,12.63
2023-01-22T05:07:56.450Z,12.93
2023-01-22T05:10:24.085Z,12.35
2023-01-22T05:12:51.364Z,13.18
2023-01-22T05:15:24.328Z,12.00
2023-01-22T05:17:52.858Z,12.88
2023-01-22T05:20:20.131Z,14.45
2023-01-22T05:22:47.022Z,16.20
2023-01-22T05:25:13.785Z,18.65
2023-01-22T05:27:40.446Z,20.55
2023-01-22T05:30:08.281Z,16.15
2023-01-22T05:32:35.243Z,15.60
2023-01-22T05:35:02.466Z,15.85
2023-01-22T05:37:29.208Z,16.77
2023-01-22T05:39:55.995Z,20.77
2023-01-22T05:42:22.714Z,15.35
2023-01-22T05:44:49.424Z,15.13
2023-01-22T05:47:16.384Z,14.23
2023-01-22T05:49:43.040Z,13.80
2023-01-22T05:52:10.819Z,14.38
2023-01-22T05:54:39.977Z,14.15
2023-01-22T05:57:07.618Z,14.88
2023-01-22T05:59:34.689Z,14.90
2023-01-22T06:02:01.782Z,15.38
2023-01-22T06:04:28.812Z,15.27
2023-01-22T06:06:55.685Z,15.32
2023-01-22T06:09:22.591Z,14.68
2023-01-22T06:11:49.439Z,14.55
2023-01-22T06:14:16.198Z,14.75
2023-01-22T06:16:42.893Z,13.95
2023-01-22T06:19:09.887Z,14.25
2023-01-22T06:21:36.616Z,13.63
2023-01-22T06:24:03.419Z,13.25
2023-01-22T06:26:30.073Z,13.73
2023-01-22T06:28:56.778Z,13.40
2023-01-22T06:31:23.531Z,14.57
2023-01-22T06:33:50.263Z,13.43
2023-01-22T06:36:17.035Z,13.60
2023-01-22T06:38:43.692Z,13.15
2023-01-22T06:41:10.506Z,12.48
2023-01-22T06:43:40.268Z,14.20
2023-01-22T06:46:07.156Z,12.15
2023-01-22T06:48:33.926Z,13.32
2023-01-22T06:51:00.836Z,12.18
2023-01-22T06:53:28.268Z,13.85
2023-01-22T06:55:55.113Z,15.57
2023-01-22T06:58:22.154Z,14.23
2023-01-22T07:00:48.812Z,14.02
2023-01-22T07:03:15.469Z,12.32
2023-01-22T07:05:42.431Z,12.57
2023-01-22T07:08:13.370Z,12.98
2023-01-22T07:10:40.051Z,13.15
2023-01-22T07:13:07.948Z,11.68
2023-01-22T07:15:34.612Z,11.55
2023-01-22T07:18:01.307Z,10.90
2023-01-22T07:20:27.968Z,12.13
2023-01-22T07:22:59.211Z,10.75
2023-01-22T07:25:27.294Z,9.80
2023-01-22T07:28:00.137Z,11.18
2023-01-22T07:30:26.769Z,12.35
2023-01-22T07:32:53.589Z,13.90
2023-01-22T07:35:20.771Z,16.50
2023-01-22T07:37:54.901Z,13.20
2023-01-22T07:40:24.087Z,12.30
2023-01-22T07:42:51.656Z,17.17
2023-01-22T07:45:19.359Z,20.10
2023-01-22T07:47:57.435Z,23.08
2023-01-22T07:50:27.060Z,19.65
2023-01-22T07:52:54.041Z,19.52
2023-01-22T07:55:21.139Z,17.23
2023-01-22T07:57:47.760Z,13.73
2023-01-22T08:00:18.495Z,14.95
2023-01-22T08:02:45.293Z,13.25
2023-01-22T08:05:14.285Z,17.92
2023-01-22T08:07:40.967Z,12.05
2023-01-22T08:10:09.011Z,12.70
2023-01-22T08:12:38.474Z,16.90
2023-01-22T08:15:05.632Z,12.55
2023-01-22T08:17:32.457Z,14.23
2023-01-22T08:19:59.061Z,13.95
2023-01-22T08:22:25.744Z,13.07
2023-01-22T08:24:54.113Z,13.57
2023-01-22T08:27:21.927Z,14.52
2023-01-22T08:29:51.322Z,12.13
2023-01-22T08:32:20.460Z,14.43
2023-01-22T08:34:47.093Z,13.60
2023-01-22T08:37:13.880Z,14.98
2023-01-22T08:39:40.676Z,13.95
2023-01-22T08:42:07.290Z,14.02
2023-01-22T08:44:33.995Z,13.32
2023-01-22T08:47:00.599Z,11.93
2023-01-22T08:49:27.206Z,12.57
2023-01-22T08:51:53.908Z,12.70
2023-01-22T08:54:20.562Z,11.88
2023-01-22T08:56:48.025Z,23.55
2023-01-22T08:59:16.054Z,13.52
2023-01-22T09:01:42.752Z,13.88
2023-01-22T09:04:10.642Z,15.70
2023-01-22T09:06:38.696Z,15.95
2023-01-22T09:09:06.922Z,26.65
2023-01-22T09:11:34.275Z,14.68
2023-01-22T09:14:01.015Z,12.98
2023-01-22T09:16:28.028Z,12.75
2023-01-22T09:18:54.780Z,23.20
2023-01-22T09:21:21.521Z,13.15
2023-01-22T09:23:48.288Z,15.07
2023-01-22T09:26:15.136Z,10.55
2023-01-22T09:28:41.768Z,12.52
2023-01-22T09:31:11.882Z,10.77
2023-01-22T09:33:38.671Z,11.23
2023-01-22T09:36:14.016Z,11.63
2023-01-22T09:38:41.488Z,11.27
2023-01-22T09:41:18.946Z,12.35
2023-01-22T09:43:52.015Z,15.48
2023-01-22T09:46:39.045Z,14.48
2023-01-22T09:49:14.299Z,10.60
2023-01-22T09:51:42.646Z,10.82
2023-01-22T09:54:12.880Z,11.15
2023-01-22T09:56:46.046Z,9.40
2023-01-22T09:59:24.895Z,9.10
2023-01-22T10:01:56.156Z,8.30
2023-01-22T10:04:44.716Z,7.45
2023-01-22T10:07:38.625Z,10.75
2023-01-22T10:10:22.437Z,10.10
2023-01-22T10:13:34.443Z,13.65
2023-01-22T10:16:02.248Z,12.10
2023-01-22T10:18:37.759Z,14.50
2023-01-22T10:21:21.186Z,13.10
2023-01-22T10:23:50.138Z,12.48
2023-01-22T10:26:17.999Z,8.32
2023-01-22T10:28:47.885Z,12.13
2023-01-22T10:31:28.473Z,9.27
2023-01-22T10:33:57.566Z,12.73
2023-01-22T10:36:24.435Z,12.77
2023-01-22T10:38:51.144Z,13.88
2023-01-22T10:41:18.687Z,14.00
2023-01-22T10:43:47.648Z,17.90
2023-01-22T10:46:23.232Z,21.25
2023-01-22T10:49:00.610Z,17.98
2023-01-22T10:51:40.855Z,24.33
2023-01-22T10:54:21.436Z,37.67
2023-01-22T10:56:48.821Z,26.77
2023-01-22T10:59:22.849Z,19.30
2023-01-22T11:01:57.645Z,18.88
2023-01-22T11:04:28.575Z,34.70
2023-01-22T11:07:05.790Z,28.33
2023-01-22T11:09:38.600Z,47.65
2023-01-22T11:12:26.166Z,39.90
2023-01-22T11:15:13.977Z,19.88
2023-01-22T11:17:50.190Z,36.85
2023-01-22T11:20:23.134Z,29.13
2023-01-22T11:23:00.649Z,43.33
2023-01-22T11:25:40.965Z,35.60
2023-01-22T11:28:42.475Z,29.52
2023-01-22T11:31:17.696Z,57.10
2023-01-22T11:34:11.958Z,61.10
2023-01-22T11:37:04.906Z,58.47
2023-01-22T11:39:54.979Z,43.95
2023-01-22T11:42:51.854Z,47.45
2023-01-22T11:45:47.654Z,46.10
2023-01-22T11:48:33.250Z,29.00
2023-01-22T11:51:23.995Z,41.45
2023-01-22T11:54:15.683Z,28.50
2023-01-22T11:57:11.411Z,57.60
2023-01-22T12:00:04.647Z,37.60
2023-01-22T12:02:46.402Z,51.47
2023-01-22T12:05:50.347Z,26.98
2023-01-22T12:08:54.919Z,18.67
2023-01-22T12:11:38.129Z,31.17
2023-01-22T12:14:20.365Z,29.63
2023-01-22T12:16:50.053Z,30.73
2023-01-22T12:19:41.163Z,20.50
2023-01-22T12:22:40.209Z,19.17
2023-01-22T12:25:18.385Z,19.98
2023-01-22T12:28:18.123Z,14.95
2023-01-22T12:30:58.015Z,19.40
2023-01-22T12:33:29.035Z,12.27
2023-01-22T12:35:59.907Z,15.98
2023-01-22T12:38:41.441Z,11.30
2023-01-22T12:41:23.203Z,9.00
2023-01-22T12:43:59.344Z,20.02
2023-01-22T12:46:45.731Z,17.88
2023-01-22T12:49:17.097Z,10.18
2023-01-22T12:51:46.899Z,9.70
2023-01-22T12:54:28.584Z,9.45
2023-01-22T12:57:10.683Z,10.68
2023-01-22T12:59:44.582Z,10.20
2023-01-22T13:02:38.861Z,9.75
2023-01-22T13:05:18.945Z,8.07
2023-01-22T13:07:46.613Z,7.00
2023-01-22T13:10:29.328Z,6.45
2023-01-22T13:13:00.842Z,12.80
2023-01-22T13:15:31.574Z,10.63
2023-01-22T13:18:07.648Z,6.50
2023-01-22T13:20:37.820Z,6.57
2023-01-22T13:23:07.380Z,7.38
2023-01-22T13:25:34.197Z,7.80
2023-01-22T13:28:03.045Z,7.70
2023-01-22T13:30:31.353Z,7.57
2023-01-22T13:33:05.226Z,7.40
2023-01-22T13:35:34.495Z,7.50
2023-01-22T13:38:01.239Z,8.68
2023-01-22T13:40:37.027Z,7.88
2023-01-22T13:43:15.632Z,9.60
2023-01-22T13:45:42.367Z,8.10
2023-01-22T13:48:17.514Z,8.48
2023-01-22T13:50:56.122Z,7.88
2023-01-22T13:53:44.953Z,7.80
2023-01-22T13:56:16.652Z,8.18
2023-01-22T13:58:48.898Z,9.05
2023-01-22T14:01:33.569Z,70.78
2023-01-22T14:04:06.255Z,105.97
2023-01-22T14:06:44.917Z,12.02
2023-01-22T14:09:11.566Z,68.40
2023-01-22T14:11:39.988Z,69.65
2023-01-22T14:14:19.614Z,11.93
2023-01-22T14:16:46.992Z,13.48
2023-01-22T14:19:14.179Z,8.48
2023-01-22T14:21:41.729Z,20.75
2023-01-22T14:24:09.158Z,19.30
2023-01-22T14:26:36.031Z,34.03
2023-01-22T14:29:02.765Z,10.55
2023-01-22T14:31:29.453Z,73.00
2023-01-22T14:33:56.085Z,9.48
2023-01-22T14:36:22.772Z,27.60
2023-01-22T14:38:51.375Z,49.25
2023-01-22T14:41:18.079Z,40.00
2023-01-22T14:43:44.726Z,14.27
2023-01-22T14:46:11.454Z,31.02
2023-01-22T14:48:38.837Z,9.93
2023-01-22T14:51:10.591Z,12.68
2023-01-22T14:53:38.178Z,18.38
2023-01-22T14:56:05.739Z,14.00
2023-01-22T14:58:32.788Z,9.93
2023-01-22T15:00:59.466Z,8.88
2023-01-22T15:03:29.829Z,14.07
2023-01-22T15:05:56.892Z,11.93
2023-01-22T15:08:23.642Z,13.98
2023-01-22T15:10:50.300Z,12.13
2023-01-22T15:13:17.050Z,14.20
2023-01-22T15:15:44.017Z,10.77
2023-01-22T15:18:10.688Z,9.75
2023-01-22T15:20:37.424Z,9.23
2023-01-22T15:23:04.131Z,10.68
2023-01-22T15:25:32.192Z,9.05
2023-01-22T15:27:58.936Z,9.27
2023-01-22T15:30:25.970Z,9.27
2023-01-22T15:32:52.666Z,9.02
2023-01-22T15:35:19.384Z,10.85
2023-01-22T15:37:47.425Z,9.70
2023-01-22T15:40:14.617Z,9.10
2023-01-22T15:42:41.370Z,9.20
2023-01-22T15:45:08.616Z,10.60
2023-01-22T15:47:35.279Z,10.15
2023-01-22T15:50:01.987Z,11.23
2023-01-22T15:52:28.695Z,9.98
2023-01-22T15:54:55.705Z,11.80
2023-01-22T15:57:22.363Z,11.82
2023-01-22T15:59:49.073Z,10.50
2023-01-22T16:02:15.905Z,11.40
2023-01-22T16:04:42.630Z,10.43
2023-01-22T16:07:09.319Z,11.73
2023-01-22T16:09:36.211Z,11.95
2023-01-22T16:12:03.001Z,11.10
2023-01-22T16:14:29.665Z,18.38
2023-01-22T16:16:56.442Z,40.00
2023-01-22T16:19:23.254Z,35.33
2023-01-22T16:21:52.201Z,12.90
2023-01-22T16:24:19.267Z,18.10
2023-01-22T16:26:45.999Z,55.60
2023-01-22T16:29:12.761Z,33.78
2023-01-22T16:31:39.639Z,29.65
2023-01-22T16:34:09.533Z,12.93
2023-01-22T16:36:37.200Z,13.20
2023-01-22T16:39:05.619Z,35.53
2023-01-22T16:41:36.850Z,13.40
2023-01-22T16:44:07.722Z,18.95
2023-01-22T16:46:39.278Z,13.13
2023-01-22T16:49:11.739Z,16.75
2023-01-22T16:51:42.668Z,22.90
2023-01-22T16:54:19.561Z,21.27
2023-01-22T16:56:46.903Z,19.63
2023-01-22T16:59:13.753Z,18.23
2023-01-22T17:01:41.514Z,20.02
2023-01-22T17:04:08.556Z,15.00
2023-01-22T17:06:43.723Z,13.95
2023-01-22T17:09:16.682Z,12.60
2023-01-22T17:11:45.819Z,16.23
2023-01-22T17:14:13.183Z,23.58
2023-01-22T17:16:40.005Z,17.13
2023-01-22T17:19:06.693Z,12.20
2023-01-22T17:21:33.489Z,12.23
2023-01-22T17:24:00.164Z,16.40
2023-01-22T17:26:27.292Z,17.20
2023-01-22T17:28:54.138Z,17.40
2023-01-22T17:31:22.171Z,15.90
2023-01-22T17:33:49.427Z,19.00
2023-01-22T17:36:19.280Z,19.33
2023-01-22T17:38:46.294Z,18.48
2023-01-22T17:41:16.158Z,15.10
2023-01-22T17:43:45.035Z,20.48
2023-01-22T17:46:17.248Z,15.75
2023-01-22T17:51:13.828Z,12.23
2023-01-22T17:53:42.913Z,18.80
2023-01-22T17:56:18.489Z,16.23
2023-01-22T17:58:50.473Z,16.73
2023-01-22T18:01:19.455Z,13.70
2023-01-22T18:03:47.162Z,15.45
2023-01-22T18:06:14.392Z,17.65
2023-01-22T18:08:42.538Z,17.35
2023-01-22T18:11:12.762Z,14.75
2023-01-22T18:13:40.481Z,13.30
2023-01-22T18:16:09.582Z,14.75
2023-01-22T18:18:36.720Z,15.25
2023-01-22T18:21:03.632Z,14.13
2023-01-22T18:23:30.331Z,15.40
2023-01-22T18:25:58.252Z,14.55
2023-01-22T18:28:26.383Z,14.75
2023-01-22T18:30:53.566Z,14.68
2023-01-22T18:33:21.214Z,14.45
2023-01-22T18:35:53.391Z,16.50
2023-01-22T18:38:24.960Z,15.13
2023-01-22T18:40:52.781Z,12.52
2023-01-22T18:43:20.124Z,15.80
2023-01-22T18:45:46.751Z,15.45
2023-01-22T18:48:15.646Z,15.07
2023-01-22T18:50:42.906Z,15.32
2023-01-22T18:53:09.919Z,14.75
2023-01-22T18:55:36.926Z,18.15
2023-01-22T18:58:07.679Z,16.45
2023-01-22T19:00:34.729Z,15.43
2023-01-22T19:03:01.763Z,14.70
2023-01-22T19:05:28.891Z,16.45
2023-01-22T19:07:55.605Z,17.27
2023-01-22T19:10:23.223Z,15.40
2023-01-22T19:12:50.154Z,15.88
2023-01-22T19:15:17.160Z,14.40
2023-01-22T19:17:44.081Z,14.43
2023-01-22T19:20:13.082Z,14.43
2023-01-22T19:22:39.795Z,14.82
2023-01-22T19:25:07.127Z,15.50
2023-01-22T19:27:33.932Z,16.20
2023-01-22T19:30:00.724Z,14.55
2023-01-22T19:32:28.704Z,16.42
2023-01-22T19:34:56.120Z,16.92
2023-01-22T19:37:23.224Z,19.20
2023-01-22T19:39:50.386Z,16.23
2023-01-22T19:42:18.370Z,73.32
2023-01-22T19:44:45.516Z,25.13
2023-01-22T19:47:12.441Z,38.85
2023-01-22T19:49:39.209Z,23.27
2023-01-22T19:52:05.933Z,28.63
2023-01-22T19:54:32.734Z,31.80
2023-01-22T19:56:59.448Z,20.30
2023-01-22T19:59:26.225Z,34.53
2023-01-22T20:01:53.126Z,13.85
2023-01-22T20:04:25.689Z,14.43
2023-01-22T20:07:00.599Z,17.15
2023-01-22T20:09:29.228Z,30.73
2023-01-22T20:11:58.011Z,17.60
2023-01-22T20:14:33.943Z,19.80
2023-01-22T20:17:02.172Z,23.02
2023-01-22T20:19:29.755Z,15.60
2023-01-22T20:21:56.779Z,28.50
2023-01-22T20:24:23.496Z,15.27
2023-01-22T20:26:54.275Z,18.08
2023-01-22T20:29:21.213Z,18.98
2023-01-22T20:31:51.663Z,19.73
2023-01-22T20:34:18.528Z,19.88
2023-01-22T20:36:45.232Z,16.83
2023-01-22T20:39:12.757Z,15.40
2023-01-22T20:41:39.500Z,14.10
2023-01-22T20:44:06.490Z,17.33
2023-01-22T20:46:34.609Z,13.50
2023-01-22T20:49:01.471Z,26.38
2023-01-22T20:51:29.136Z,13.23
2023-01-22T20:53:57.243Z,17.92
2023-01-22T20:56:28.386Z,19.83
2023-01-22T20:58:57.434Z,18.27
2023-01-22T21:01:24.601Z,12.38
2023-01-22T21:03:51.529Z,14.13
2023-01-22T21:06:19.828Z,13.35
2023-01-22T21:08:52.115Z,16.58
2023-01-22T21:13:48.429Z,11.75
2023-01-22T21:16:23.177Z,11.27
2023-01-22T21:21:41.901Z,11.30
2023-01-22T21:24:08.778Z,12.18
2023-01-22T21:26:35.544Z,11.48
2023-01-22T21:29:07.712Z,13.95
2023-01-22T21:31:35.451Z,14.90
2023-01-22T21:34:04.357Z,12.65
2023-01-22T21:36:33.138Z,12.93
2023-01-22T21:39:00.374Z,14.40
2023-01-22T21:41:27.155Z,12.35
2023-01-22T21:44:12.904Z,13.27
2023-01-22T21:46:42.031Z,13.85
2023-01-22T21:49:17.430Z,14.07
2023-01-22T21:51:44.860Z,13.40
2023-01-22T21:54:13.182Z,12.65
2023-01-22T21:56:39.919Z,14.32
2023-01-22T21:59:06.870Z,14.18
2023-01-22T22:01:34.203Z,14.35
2023-01-22T22:04:02.404Z,17.48
2023-01-22T22:06:30.265Z,14.30
2023-01-22T22:08:59.648Z,13.25
2023-01-22T22:11:26.568Z,14.20
2023-01-22T22:13:53.697Z,12.52
2023-01-22T22:16:21.240Z,12.23
2023-01-22T22:18:48.763Z,12.20
2023-01-22T22:21:15.738Z,13.57
2023-01-22T22:23:42.683Z,12.63
2023-01-22T22:26:11.228Z,13.05
2023-01-22T22:28:37.924Z,14.88
2023-01-22T22:31:11.703Z,13.13
2023-01-22T22:33:43.281Z,21.15
2023-01-22T22:36:11.638Z,16.83
2023-01-22T22:51:43.422Z,29.48
2023-01-22T22:54:19.793Z,11.02
2023-01-22T22:56:47.907Z,13.50
2023-01-22T22:59:15.966Z,30.15
2023-01-22T23:01:42.919Z,12.65
2023-01-22T23:04:10.994Z,10.95
2023-01-22T23:06:37.833Z,12.40
2023-01-22T23:09:06.660Z,14.40
2023-01-22T23:11:36.237Z,12.18
2023-01-22T23:14:03.843Z,10.57
2023-01-22T23:16:33.550Z,10.10
2023-01-22T23:19:02.639Z,20.60
2023-01-22T23:21:29.770Z,14.68
2023-01-22T23:23:56.909Z,12.70
2023-01-22T23:26:29.761Z,10.07
2023-01-22T23:28:58.814Z,13.10
2023-01-22T23:31:27.180Z,10.07
2023-01-22T23:33:57.823Z,9.90
2023-01-22T23:36:28.136Z,9.48
2023-01-22T23:38:55.092Z,8.50
2023-01-22T23:41:22.854Z,9.30
2023-01-22T23:43:50.278Z,8.57
2023-01-22T23:46:20.455Z,8.40
2023-01-22T23:48:47.402Z,8.50
2023-01-22T23:51:15.287Z,8.05
2023-01-22T23:53:44.616Z,9.30
2023-01-22T23:56:12.590Z,7.65
2023-01-22T23:58:39.773Z,6.68
